sensor_id;sensor_type;location;lat;lon;timestamp;P1;durP1;ratioP1;P2;durP2;ratioP2
85137;SDS011;75497;42.708;23.330;2024-03-08T00:01:41;6.85;;;2.25;;
85137;SDS011;75497;42.708;23.330;2024-03-08T00:04:06;5.10;;;1.60;;
85137;SDS011;75497;42.708;23.330;2024-03-08T00:06:33;5.50;;;1.63;;
85137;SDS011;75497;42.708;23.330;2024-03-08T00:08:58;5.13;;;1.42;;
85137;SDS011;75497;42.708;23.330;2024-03-08T00:11:24;5.10;;;1.52;;
85137;SDS011;75497;42.708;23.330;2024-03-08T00:13:52;4.45;;;1.35;;
85137;SDS011;75497;42.708;23.330;2024-03-08T00:16:18;4.85;;;1.80;;
85137;SDS011;75497;42.708;23.330;2024-03-08T00:18:44;4.88;;;1.45;;
85137;SDS011;75497;42.708;23.330;2024-03-08T00:21:10;6.18;;;1.67;;
85137;SDS011;75497;42.708;23.330;2024-03-08T00:23:37;6.03;;;1.08;;
85137;SDS011;75497;42.708;23.330;2024-03-08T00:26:03;4.50;;;1.45;;
85137;SDS011;75497;42.708;23.330;2024-03-08T00:28:29;4.18;;;1.10;;
85137;SDS011;75497;42.708;23.330;2024-03-08T00:30:56;3.83;;;1.00;;
85137;SDS011;75497;42.708;23.330;2024-03-08T00:33:21;5.03;;;1.50;;
85137;SDS011;75497;42.708;23.330;2024-03-08T00:35:47;4.78;;;1.10;;
85137;SDS011;75497;42.708;23.330;2024-03-08T00:38:12;4.85;;;1.33;;
85137;SDS011;75497;42.708;23.330;2024-03-08T00:40:38;4.07;;;1.05;;
85137;SDS011;75497;42.708;23.330;2024-03-08T00:43:05;5.03;;;1.00;;
85137;SDS011;75497;42.708;23.330;2024-03-08T00:45:31;5.35;;;1.33;;
85137;SDS011;75497;42.708;23.330;2024-03-08T00:47:57;5.20;;;0.98;;
85137;SDS011;75497;42.708;23.330;2024-03-08T00:50:22;5.55;;;1.42;;
85137;SDS011;75497;42.708;23.330;2024-03-08T00:52:48;4.65;;;1.30;;
85137;SDS011;75497;42.708;23.330;2024-03-08T00:55:13;4.45;;;1.33;;
85137;SDS011;75497;42.708;23.330;2024-03-08T00:57:39;6.28;;;1.65;;
85137;SDS011;75497;42.708;23.330;2024-03-08T01:00:06;4.40;;;1.20;;
85137;SDS011;75497;42.708;23.330;2024-03-08T01:02:37;4.30;;;1.23;;
85137;SDS011;75497;42.708;23.330;2024-03-08T01:05:05;3.33;;;0.73;;
85137;SDS011;75497;42.708;23.330;2024-03-08T01:07:34;4.18;;;1.27;;
85137;SDS011;75497;42.708;23.330;2024-03-08T01:10:01;4.28;;;1.25;;
85137;SDS011;75497;42.708;23.330;2024-03-08T01:12:28;4.25;;;1.30;;
85137;SDS011;75497;42.708;23.330;2024-03-08T01:14:54;3.67;;;1.00;;
85137;SDS011;75497;42.708;23.330;2024-03-08T01:17:20;4.88;;;1.45;;
85137;SDS011;75497;42.708;23.330;2024-03-08T01:19:46;5.00;;;1.20;;
85137;SDS011;75497;42.708;23.330;2024-03-08T01:22:12;5.97;;;1.08;;
85137;SDS011;75497;42.708;23.330;2024-03-08T01:24:38;4.72;;;1.63;;
85137;SDS011;75497;42.708;23.330;2024-03-08T01:27:03;4.78;;;1.38;;
85137;SDS011;75497;42.708;23.330;2024-03-08T01:29:29;4.32;;;1.33;;
85137;SDS011;75497;42.708;23.330;2024-03-08T01:31:55;5.03;;;1.80;;
85137;SDS011;75497;42.708;23.330;2024-03-08T01:34:21;4.70;;;1.63;;
85137;SDS011;75497;42.708;23.330;2024-03-08T01:36:48;4.90;;;1.58;;
85137;SDS011;75497;42.708;23.330;2024-03-08T01:39:14;4.18;;;1.02;;
85137;SDS011;75497;42.708;23.330;2024-03-08T01:41:39;4.90;;;1.25;;
85137;SDS011;75497;42.708;23.330;2024-03-08T01:44:06;5.03;;;1.17;;
85137;SDS011;75497;42.708;23.330;2024-03-08T01:46:32;3.67;;;0.90;;
85137;SDS011;75497;42.708;23.330;2024-03-08T01:48:58;3.38;;;1.08;;
85137;SDS011;75497;42.708;23.330;2024-03-08T01:51:28;3.42;;;1.00;;
85137;SDS011;75497;42.708;23.330;2024-03-08T01:53:56;4.32;;;1.20;;
85137;SDS011;75497;42.708;23.330;2024-03-08T01:56:24;6.57;;;1.10;;
85137;SDS011;75497;42.708;23.330;2024-03-08T01:58:51;3.97;;;1.20;;
85137;SDS011;75497;42.708;23.330;2024-03-08T02:01:17;4.40;;;1.10;;
85137;SDS011;75497;42.708;23.330;2024-03-08T02:03:44;4.15;;;1.20;;
85137;SDS011;75497;42.708;23.330;2024-03-08T02:06:13;4.75;;;1.35;;
85137;SDS011;75497;42.708;23.330;2024-03-08T02:08:42;6.25;;;1.77;;
85137;SDS011;75497;42.708;23.330;2024-03-08T02:11:12;4.57;;;1.40;;
85137;SDS011;75497;42.708;23.330;2024-03-08T02:13:38;4.70;;;1.52;;
85137;SDS011;75497;42.708;23.330;2024-03-08T02:16:04;4.15;;;1.08;;
85137;SDS011;75497;42.708;23.330;2024-03-08T02:18:33;5.10;;;1.27;;
85137;SDS011;75497;42.708;23.330;2024-03-08T02:20:59;6.50;;;1.38;;
85137;SDS011;75497;42.708;23.330;2024-03-08T02:23:27;4.45;;;1.42;;
85137;SDS011;75497;42.708;23.330;2024-03-08T02:25:54;3.30;;;0.63;;
85137;SDS011;75497;42.708;23.330;2024-03-08T02:28:21;2.58;;;0.68;;
85137;SDS011;75497;42.708;23.330;2024-03-08T02:30:48;2.50;;;0.63;;
85137;SDS011;75497;42.708;23.330;2024-03-08T02:33:14;2.70;;;0.60;;
85137;SDS011;75497;42.708;23.330;2024-03-08T02:35:44;2.05;;;0.40;;
85137;SDS011;75497;42.708;23.330;2024-03-08T02:38:11;2.58;;;0.57;;
85137;SDS011;75497;42.708;23.330;2024-03-08T02:40:44;2.92;;;0.50;;
85137;SDS011;75497;42.708;23.330;2024-03-08T02:43:11;1.52;;;0.30;;
85137;SDS011;75497;42.708;23.330;2024-03-08T02:45:38;3.67;;;0.80;;
85137;SDS011;75497;42.708;23.330;2024-03-08T02:48:04;1.95;;;0.30;;
85137;SDS011;75497;42.708;23.330;2024-03-08T02:50:32;2.30;;;0.52;;
85137;SDS011;75497;42.708;23.330;2024-03-08T02:52:58;2.03;;;0.50;;
85137;SDS011;75497;42.708;23.330;2024-03-08T02:55:23;3.55;;;0.77;;
85137;SDS011;75497;42.708;23.330;2024-03-08T02:57:51;2.40;;;0.60;;
85137;SDS011;75497;42.708;23.330;2024-03-08T03:00:17;3.47;;;0.90;;
85137;SDS011;75497;42.708;23.330;2024-03-08T03:02:45;3.13;;;0.50;;
85137;SDS011;75497;42.708;23.330;2024-03-08T03:05:11;2.88;;;0.50;;
85137;SDS011;75497;42.708;23.330;2024-03-08T03:07:37;2.72;;;0.55;;
85137;SDS011;75497;42.708;23.330;2024-03-08T03:10:02;2.63;;;0.68;;
85137;SDS011;75497;42.708;23.330;2024-03-08T03:12:29;2.47;;;0.50;;
85137;SDS011;75497;42.708;23.330;2024-03-08T03:14:55;2.83;;;0.77;;
85137;SDS011;75497;42.708;23.330;2024-03-08T03:17:24;4.28;;;0.88;;
85137;SDS011;75497;42.708;23.330;2024-03-08T03:19:50;3.10;;;0.60;;
85137;SDS011;75497;42.708;23.330;2024-03-08T03:22:17;2.35;;;0.70;;
85137;SDS011;75497;42.708;23.330;2024-03-08T03:24:43;3.20;;;0.70;;
85137;SDS011;75497;42.708;23.330;2024-03-08T03:27:11;3.58;;;1.00;;
85137;SDS011;75497;42.708;23.330;2024-03-08T03:29:43;5.00;;;2.13;;
85137;SDS011;75497;42.708;23.330;2024-03-08T03:32:14;5.80;;;2.30;;
85137;SDS011;75497;42.708;23.330;2024-03-08T03:34:40;5.25;;;2.00;;
85137;SDS011;75497;42.708;23.330;2024-03-08T03:37:08;4.97;;;1.48;;
85137;SDS011;75497;42.708;23.330;2024-03-08T03:39:37;3.95;;;1.17;;
85137;SDS011;75497;42.708;23.330;2024-03-08T03:42:17;4.72;;;1.00;;
85137;SDS011;75497;42.708;23.330;2024-03-08T03:44:46;3.17;;;0.77;;
85137;SDS011;75497;42.708;23.330;2024-03-08T03:47:13;4.63;;;1.05;;
85137;SDS011;75497;42.708;23.330;2024-03-08T03:49:40;4.28;;;0.80;;
85137;SDS011;75497;42.708;23.330;2024-03-08T03:52:09;3.63;;;0.80;;
85137;SDS011;75497;42.708;23.330;2024-03-08T03:54:35;4.05;;;0.98;;
85137;SDS011;75497;42.708;23.330;2024-03-08T03:57:01;6.15;;;1.00;;
85137;SDS011;75497;42.708;23.330;2024-03-08T03:59:28;4.50;;;1.20;;
85137;SDS011;75497;42.708;23.330;2024-03-08T04:01:54;4.88;;;0.80;;
85137;SDS011;75497;42.708;23.330;2024-03-08T04:04:20;4.88;;;1.08;;
85137;SDS011;75497;42.708;23.330;2024-03-08T04:06:46;4.95;;;1.10;;
85137;SDS011;75497;42.708;23.330;2024-03-08T04:09:13;4.93;;;1.00;;
85137;SDS011;75497;42.708;23.330;2024-03-08T04:11:39;4.72;;;1.05;;
85137;SDS011;75497;42.708;23.330;2024-03-08T04:14:05;3.75;;;0.90;;
85137;SDS011;75497;42.708;23.330;2024-03-08T04:16:31;4.05;;;0.80;;
85137;SDS011;75497;42.708;23.330;2024-03-08T04:18:57;4.55;;;1.10;;
85137;SDS011;75497;42.708;23.330;2024-03-08T04:21:23;5.30;;;1.00;;
85137;SDS011;75497;42.708;23.330;2024-03-08T04:23:49;4.70;;;1.17;;
85137;SDS011;75497;42.708;23.330;2024-03-08T04:26:15;4.10;;;1.35;;
85137;SDS011;75497;42.708;23.330;2024-03-08T04:28:40;4.90;;;1.23;;
85137;SDS011;75497;42.708;23.330;2024-03-08T04:31:06;5.22;;;1.50;;
85137;SDS011;75497;42.708;23.330;2024-03-08T04:33:32;4.93;;;1.42;;
85137;SDS011;75497;42.708;23.330;2024-03-08T04:36:00;5.35;;;1.58;;
85137;SDS011;75497;42.708;23.330;2024-03-08T04:38:26;5.25;;;1.60;;
85137;SDS011;75497;42.708;23.330;2024-03-08T04:40:52;4.07;;;1.10;;
85137;SDS011;75497;42.708;23.330;2024-03-08T04:43:18;6.00;;;1.65;;
85137;SDS011;75497;42.708;23.330;2024-03-08T04:45:45;4.95;;;1.48;;
85137;SDS011;75497;42.708;23.330;2024-03-08T04:48:11;5.60;;;1.20;;
85137;SDS011;75497;42.708;23.330;2024-03-08T04:50:36;5.72;;;1.65;;
85137;SDS011;75497;42.708;23.330;2024-03-08T04:53:03;5.72;;;2.17;;
85137;SDS011;75497;42.708;23.330;2024-03-08T04:55:29;7.18;;;2.90;;
85137;SDS011;75497;42.708;23.330;2024-03-08T04:57:55;7.53;;;2.60;;
85137;SDS011;75497;42.708;23.330;2024-03-08T05:00:20;12.20;;;3.58;;
85137;SDS011;75497;42.708;23.330;2024-03-08T05:02:46;6.97;;;2.92;;
85137;SDS011;75497;42.708;23.330;2024-03-08T05:05:11;7.38;;;2.83;;
85137;SDS011;75497;42.708;23.330;2024-03-08T05:07:38;7.30;;;2.88;;
85137;SDS011;75497;42.708;23.330;2024-03-08T05:10:05;7.47;;;2.63;;
85137;SDS011;75497;42.708;23.330;2024-03-08T05:12:32;8.10;;;2.67;;
85137;SDS011;75497;42.708;23.330;2024-03-08T05:15:00;11.55;;;3.35;;
85137;SDS011;75497;42.708;23.330;2024-03-08T05:17:25;8.32;;;4.43;;
85137;SDS011;75497;42.708;23.330;2024-03-08T05:19:51;9.40;;;4.85;;
85137;SDS011;75497;42.708;23.330;2024-03-08T05:22:17;7.20;;;3.20;;
85137;SDS011;75497;42.708;23.330;2024-03-08T05:24:44;8.07;;;3.40;;
85137;SDS011;75497;42.708;23.330;2024-03-08T05:27:09;9.80;;;3.83;;
85137;SDS011;75497;42.708;23.330;2024-03-08T05:29:36;8.85;;;3.65;;
85137;SDS011;75497;42.708;23.330;2024-03-08T05:32:01;8.93;;;3.55;;
85137;SDS011;75497;42.708;23.330;2024-03-08T05:34:28;8.68;;;3.38;;
85137;SDS011;75497;42.708;23.330;2024-03-08T05:36:56;9.98;;;3.90;;
85137;SDS011;75497;42.708;23.330;2024-03-08T05:39:23;11.68;;;3.58;;
85137;SDS011;75497;42.708;23.330;2024-03-08T05:41:49;9.88;;;3.85;;
85137;SDS011;75497;42.708;23.330;2024-03-08T05:44:15;8.23;;;3.33;;
85137;SDS011;75497;42.708;23.330;2024-03-08T05:46:42;8.88;;;3.45;;
85137;SDS011;75497;42.708;23.330;2024-03-08T05:49:08;10.07;;;3.92;;
85137;SDS011;75497;42.708;23.330;2024-03-08T05:51:35;9.00;;;3.75;;
85137;SDS011;75497;42.708;23.330;2024-03-08T05:54:02;9.18;;;3.65;;
85137;SDS011;75497;42.708;23.330;2024-03-08T05:56:30;8.20;;;3.72;;
85137;SDS011;75497;42.708;23.330;2024-03-08T05:58:57;8.93;;;3.70;;
85137;SDS011;75497;42.708;23.330;2024-03-08T06:01:25;9.52;;;3.85;;
85137;SDS011;75497;42.708;23.330;2024-03-08T06:03:52;9.98;;;4.15;;
85137;SDS011;75497;42.708;23.330;2024-03-08T06:06:20;10.30;;;4.43;;
85137;SDS011;75497;42.708;23.330;2024-03-08T06:08:47;10.35;;;3.88;;
85137;SDS011;75497;42.708;23.330;2024-03-08T06:11:14;10.27;;;4.32;;
85137;SDS011;75497;42.708;23.330;2024-03-08T06:13:40;9.23;;;3.67;;
85137;SDS011;75497;42.708;23.330;2024-03-08T06:16:06;10.73;;;5.35;;
85137;SDS011;75497;42.708;23.330;2024-03-08T06:18:36;11.20;;;5.20;;
85137;SDS011;75497;42.708;23.330;2024-03-08T06:21:04;8.80;;;3.83;;
85137;SDS011;75497;42.708;23.330;2024-03-08T06:23:32;8.88;;;3.50;;
85137;SDS011;75497;42.708;23.330;2024-03-08T06:25:58;8.02;;;2.85;;
85137;SDS011;75497;42.708;23.330;2024-03-08T06:28:25;9.95;;;3.80;;
85137;SDS011;75497;42.708;23.330;2024-03-08T06:30:51;7.93;;;3.50;;
85137;SDS011;75497;42.708;23.330;2024-03-08T06:33:17;9.48;;;3.58;;
85137;SDS011;75497;42.708;23.330;2024-03-08T06:35:43;8.27;;;3.63;;
85137;SDS011;75497;42.708;23.330;2024-03-08T06:38:08;9.38;;;3.13;;
85137;SDS011;75497;42.708;23.330;2024-03-08T06:40:34;9.07;;;3.45;;
85137;SDS011;75497;42.708;23.330;2024-03-08T06:43:00;9.98;;;4.05;;
85137;SDS011;75497;42.708;23.330;2024-03-08T06:45:25;8.90;;;3.53;;
85137;SDS011;75497;42.708;23.330;2024-03-08T06:47:51;9.80;;;3.85;;
85137;SDS011;75497;42.708;23.330;2024-03-08T06:50:17;7.88;;;3.40;;
85137;SDS011;75497;42.708;23.330;2024-03-08T06:52:42;9.25;;;4.03;;
85137;SDS011;75497;42.708;23.330;2024-03-08T06:55:09;8.98;;;3.95;;
85137;SDS011;75497;42.708;23.330;2024-03-08T06:57:38;8.07;;;2.92;;
85137;SDS011;75497;42.708;23.330;2024-03-08T07:00:06;8.30;;;3.50;;
85137;SDS011;75497;42.708;23.330;2024-03-08T07:02:35;9.52;;;3.67;;
85137;SDS011;75497;42.708;23.330;2024-03-08T07:05:01;9.43;;;3.83;;
85137;SDS011;75497;42.708;23.330;2024-03-08T07:07:27;11.07;;;4.05;;
85137;SDS011;75497;42.708;23.330;2024-03-08T07:09:52;10.18;;;4.43;;
85137;SDS011;75497;42.708;23.330;2024-03-08T07:12:18;10.88;;;4.80;;
85137;SDS011;75497;42.708;23.330;2024-03-08T07:14:45;9.38;;;4.03;;
85137;SDS011;75497;42.708;23.330;2024-03-08T07:17:12;10.20;;;4.30;;
85137;SDS011;75497;42.708;23.330;2024-03-08T07:19:38;9.23;;;4.95;;
85137;SDS011;75497;42.708;23.330;2024-03-08T07:22:04;9.65;;;4.45;;
85137;SDS011;75497;42.708;23.330;2024-03-08T07:24:33;12.70;;;5.63;;
85137;SDS011;75497;42.708;23.330;2024-03-08T07:27:15;10.10;;;4.50;;
85137;SDS011;75497;42.708;23.330;2024-03-08T07:29:41;10.45;;;4.50;;
85137;SDS011;75497;42.708;23.330;2024-03-08T07:32:07;8.50;;;3.83;;
85137;SDS011;75497;42.708;23.330;2024-03-08T07:34:49;9.60;;;4.55;;
85137;SDS011;75497;42.708;23.330;2024-03-08T07:37:18;10.07;;;4.38;;
85137;SDS011;75497;42.708;23.330;2024-03-08T07:39:45;11.13;;;4.93;;
85137;SDS011;75497;42.708;23.330;2024-03-08T07:42:11;11.90;;;4.38;;
85137;SDS011;75497;42.708;23.330;2024-03-08T07:44:37;12.43;;;4.20;;
85137;SDS011;75497;42.708;23.330;2024-03-08T07:47:03;11.95;;;4.10;;
85137;SDS011;75497;42.708;23.330;2024-03-08T07:49:29;9.18;;;4.70;;
85137;SDS011;75497;42.708;23.330;2024-03-08T07:51:55;10.50;;;4.15;;
85137;SDS011;75497;42.708;23.330;2024-03-08T07:54:23;9.32;;;4.25;;
85137;SDS011;75497;42.708;23.330;2024-03-08T07:56:48;9.52;;;4.60;;
85137;SDS011;75497;42.708;23.330;2024-03-08T07:59:16;10.43;;;4.70;;
85137;SDS011;75497;42.708;23.330;2024-03-08T08:01:41;10.18;;;4.50;;
85137;SDS011;75497;42.708;23.330;2024-03-08T08:04:09;12.02;;;4.00;;
85137;SDS011;75497;42.708;23.330;2024-03-08T08:06:38;6.93;;;3.05;;
85137;SDS011;75497;42.708;23.330;2024-03-08T08:09:07;8.18;;;3.33;;
85137;SDS011;75497;42.708;23.330;2024-03-08T08:11:39;7.50;;;2.75;;
85137;SDS011;75497;42.708;23.330;2024-03-08T08:14:09;13.18;;;6.35;;
85137;SDS011;75497;42.708;23.330;2024-03-08T08:16:35;10.20;;;5.38;;
85137;SDS011;75497;42.708;23.330;2024-03-08T08:19:07;9.18;;;4.18;;
85137;SDS011;75497;42.708;23.330;2024-03-08T08:21:34;7.05;;;2.63;;
85137;SDS011;75497;42.708;23.330;2024-03-08T08:24:02;7.45;;;2.72;;
85137;SDS011;75497;42.708;23.330;2024-03-08T08:26:28;7.95;;;3.42;;
85137;SDS011;75497;42.708;23.330;2024-03-08T08:28:54;6.97;;;2.60;;
85137;SDS011;75497;42.708;23.330;2024-03-08T08:31:20;7.15;;;2.40;;
85137;SDS011;75497;42.708;23.330;2024-03-08T08:33:45;7.60;;;2.42;;
85137;SDS011;75497;42.708;23.330;2024-03-08T08:36:13;7.72;;;2.85;;
85137;SDS011;75497;42.708;23.330;2024-03-08T08:38:38;7.25;;;2.40;;
85137;SDS011;75497;42.708;23.330;2024-03-08T08:41:04;7.55;;;2.67;;
85137;SDS011;75497;42.708;23.330;2024-03-08T08:43:31;11.30;;;2.38;;
85137;SDS011;75497;42.708;23.330;2024-03-08T08:45:58;8.18;;;3.42;;
85137;SDS011;75497;42.708;23.330;2024-03-08T08:48:24;10.77;;;5.53;;
85137;SDS011;75497;42.708;23.330;2024-03-08T08:50:50;7.18;;;2.28;;
85137;SDS011;75497;42.708;23.330;2024-03-08T08:53:17;5.40;;;2.00;;
85137;SDS011;75497;42.708;23.330;2024-03-08T08:55:43;7.40;;;2.22;;
85137;SDS011;75497;42.708;23.330;2024-03-08T08:58:11;5.95;;;1.85;;
85137;SDS011;75497;42.708;23.330;2024-03-08T09:00:36;6.78;;;2.65;;
85137;SDS011;75497;42.708;23.330;2024-03-08T09:03:02;5.82;;;2.42;;
85137;SDS011;75497;42.708;23.330;2024-03-08T09:05:27;5.90;;;2.10;;
85137;SDS011;75497;42.708;23.330;2024-03-08T09:07:53;6.47;;;2.20;;
85137;SDS011;75497;42.708;23.330;2024-03-08T09:10:19;5.03;;;2.13;;
85137;SDS011;75497;42.708;23.330;2024-03-08T09:12:46;6.38;;;2.22;;
85137;SDS011;75497;42.708;23.330;2024-03-08T09:15:12;6.07;;;2.25;;
85137;SDS011;75497;42.708;23.330;2024-03-08T09:17:37;10.10;;;3.80;;
85137;SDS011;75497;42.708;23.330;2024-03-08T09:20:06;6.80;;;2.53;;
85137;SDS011;75497;42.708;23.330;2024-03-08T09:22:34;6.85;;;3.22;;
85137;SDS011;75497;42.708;23.330;2024-03-08T09:25:00;7.55;;;3.53;;
85137;SDS011;75497;42.708;23.330;2024-03-08T09:27:26;6.80;;;2.80;;
85137;SDS011;75497;42.708;23.330;2024-03-08T09:29:52;10.02;;;2.55;;
85137;SDS011;75497;42.708;23.330;2024-03-08T09:32:18;5.88;;;1.77;;
85137;SDS011;75497;42.708;23.330;2024-03-08T09:34:43;6.80;;;2.35;;
85137;SDS011;75497;42.708;23.330;2024-03-08T09:37:09;6.40;;;1.85;;
85137;SDS011;75497;42.708;23.330;2024-03-08T09:39:35;5.72;;;1.67;;
85137;SDS011;75497;42.708;23.330;2024-03-08T09:42:01;5.78;;;1.55;;
85137;SDS011;75497;42.708;23.330;2024-03-08T09:44:26;6.15;;;2.17;;
85137;SDS011;75497;42.708;23.330;2024-03-08T09:46:54;5.85;;;1.90;;
85137;SDS011;75497;42.708;23.330;2024-03-08T09:49:20;8.07;;;2.05;;
85137;SDS011;75497;42.708;23.330;2024-03-08T09:51:46;8.43;;;2.30;;
85137;SDS011;75497;42.708;23.330;2024-03-08T09:54:12;7.78;;;1.92;;
85137;SDS011;75497;42.708;23.330;2024-03-08T09:56:41;7.72;;;2.35;;
85137;SDS011;75497;42.708;23.330;2024-03-08T09:59:11;6.25;;;2.05;;
85137;SDS011;75497;42.708;23.330;2024-03-08T10:01:37;7.60;;;1.50;;
85137;SDS011;75497;42.708;23.330;2024-03-08T10:04:04;6.47;;;1.60;;
85137;SDS011;75497;42.708;23.330;2024-03-08T10:06:29;7.03;;;1.95;;
85137;SDS011;75497;42.708;23.330;2024-03-08T10:08:56;5.22;;;1.67;;
85137;SDS011;75497;42.708;23.330;2024-03-08T10:11:22;4.43;;;1.38;;
85137;SDS011;75497;42.708;23.330;2024-03-08T10:13:49;4.43;;;1.20;;
85137;SDS011;75497;42.708;23.330;2024-03-08T10:16:15;4.80;;;1.15;;
85137;SDS011;75497;42.708;23.330;2024-03-08T10:18:42;3.55;;;0.90;;
85137;SDS011;75497;42.708;23.330;2024-03-08T10:21:08;4.30;;;1.10;;
85137;SDS011;75497;42.708;23.330;2024-03-08T10:23:35;10.30;;;1.38;;
85137;SDS011;75497;42.708;23.330;2024-03-08T10:26:15;4.93;;;0.98;;
85137;SDS011;75497;42.708;23.330;2024-03-08T10:28:44;3.70;;;0.85;;
85137;SDS011;75497;42.708;23.330;2024-03-08T10:31:13;5.30;;;1.85;;
85137;SDS011;75497;42.708;23.330;2024-03-08T10:33:40;6.13;;;1.80;;
85137;SDS011;75497;42.708;23.330;2024-03-08T10:36:09;8.05;;;1.88;;
85137;SDS011;75497;42.708;23.330;2024-03-08T10:38:37;4.40;;;1.52;;
85137;SDS011;75497;42.708;23.330;2024-03-08T10:41:07;5.28;;;1.05;;
85137;SDS011;75497;42.708;23.330;2024-03-08T10:48:49;4.88;;;1.67;;
85137;SDS011;75497;42.708;23.330;2024-03-08T10:51:17;6.38;;;1.77;;
85137;SDS011;75497;42.708;23.330;2024-03-08T10:53:44;6.47;;;2.13;;
85137;SDS011;75497;42.708;23.330;2024-03-08T10:56:13;6.95;;;1.42;;
85137;SDS011;75497;42.708;23.330;2024-03-08T10:58:39;4.32;;;1.52;;
85137;SDS011;75497;42.708;23.330;2024-03-08T11:01:06;4.32;;;0.98;;
85137;SDS011;75497;42.708;23.330;2024-03-08T11:08:48;7.45;;;1.77;;
85137;SDS011;75497;42.708;23.330;2024-03-08T11:13:56;5.40;;;2.00;;
85137;SDS011;75497;42.708;23.330;2024-03-08T11:18:53;5.47;;;1.15;;
85137;SDS011;75497;42.708;23.330;2024-03-08T11:21:20;4.63;;;1.25;;
85137;SDS011;75497;42.708;23.330;2024-03-08T11:24:07;4.90;;;1.30;;
85137;SDS011;75497;42.708;23.330;2024-03-08T11:26:37;6.70;;;1.23;;
85137;SDS011;75497;42.708;23.330;2024-03-08T11:32:11;4.28;;;0.93;;
85137;SDS011;75497;42.708;23.330;2024-03-08T11:34:40;4.85;;;1.10;;
85137;SDS011;75497;42.708;23.330;2024-03-08T11:37:11;6.82;;;1.33;;
85137;SDS011;75497;42.708;23.330;2024-03-08T11:39:39;10.98;;;5.18;;
85137;SDS011;75497;42.708;23.330;2024-03-08T11:42:05;6.68;;;1.63;;
85137;SDS011;75497;42.708;23.330;2024-03-08T11:44:31;3.47;;;1.00;;
85137;SDS011;75497;42.708;23.330;2024-03-08T11:46:57;4.60;;;1.70;;
85137;SDS011;75497;42.708;23.330;2024-03-08T11:49:23;5.22;;;1.10;;
85137;SDS011;75497;42.708;23.330;2024-03-08T11:51:52;5.68;;;1.13;;
85137;SDS011;75497;42.708;23.330;2024-03-08T11:54:21;6.80;;;1.40;;
85137;SDS011;75497;42.708;23.330;2024-03-08T11:56:48;3.90;;;1.10;;
85137;SDS011;75497;42.708;23.330;2024-03-08T11:59:17;4.45;;;1.08;;
85137;SDS011;75497;42.708;23.330;2024-03-08T12:01:43;5.18;;;1.23;;
85137;SDS011;75497;42.708;23.330;2024-03-08T12:04:11;4.65;;;1.25;;
85137;SDS011;75497;42.708;23.330;2024-03-08T12:06:38;4.95;;;0.82;;
85137;SDS011;75497;42.708;23.330;2024-03-08T12:09:08;5.75;;;0.90;;
85137;SDS011;75497;42.708;23.330;2024-03-08T12:11:35;6.80;;;1.23;;
85137;SDS011;75497;42.708;23.330;2024-03-08T12:14:01;4.40;;;1.02;;
85137;SDS011;75497;42.708;23.330;2024-03-08T12:16:27;4.47;;;1.30;;
85137;SDS011;75497;42.708;23.330;2024-03-08T12:18:54;4.97;;;1.23;;
85137;SDS011;75497;42.708;23.330;2024-03-08T12:21:20;4.72;;;1.20;;
85137;SDS011;75497;42.708;23.330;2024-03-08T12:23:47;4.30;;;1.20;;
85137;SDS011;75497;42.708;23.330;2024-03-08T12:26:35;4.43;;;1.35;;
85137;SDS011;75497;42.708;23.330;2024-03-08T12:29:20;5.07;;;1.40;;
85137;SDS011;75497;42.708;23.330;2024-03-08T12:31:53;4.45;;;1.00;;
85137;SDS011;75497;42.708;23.330;2024-03-08T12:34:19;3.92;;;1.20;;
85137;SDS011;75497;42.708;23.330;2024-03-08T12:36:48;6.03;;;1.50;;
85137;SDS011;75497;42.708;23.330;2024-03-08T12:39:20;6.05;;;1.50;;
85137;SDS011;75497;42.708;23.330;2024-03-08T12:41:55;5.25;;;1.48;;
85137;SDS011;75497;42.708;23.330;2024-03-08T12:44:24;6.07;;;1.15;;
85137;SDS011;75497;42.708;23.330;2024-03-08T12:46:50;5.05;;;1.10;;
85137;SDS011;75497;42.708;23.330;2024-03-08T12:49:16;5.10;;;1.15;;
85137;SDS011;75497;42.708;23.330;2024-03-08T12:54:12;5.10;;;1.35;;
85137;SDS011;75497;42.708;23.330;2024-03-08T12:56:38;4.00;;;0.90;;
85137;SDS011;75497;42.708;23.330;2024-03-08T12:59:05;4.35;;;1.05;;
85137;SDS011;75497;42.708;23.330;2024-03-08T13:01:34;3.85;;;1.00;;
85137;SDS011;75497;42.708;23.330;2024-03-08T13:04:02;4.07;;;0.90;;
85137;SDS011;75497;42.708;23.330;2024-03-08T13:06:31;4.22;;;1.17;;
85137;SDS011;75497;42.708;23.330;2024-03-08T13:08:57;6.22;;;1.38;;
85137;SDS011;75497;42.708;23.330;2024-03-08T13:11:23;5.10;;;1.15;;
85137;SDS011;75497;42.708;23.330;2024-03-08T13:13:50;3.88;;;0.90;;
85137;SDS011;75497;42.708;23.330;2024-03-08T13:16:17;4.18;;;1.17;;
85137;SDS011;75497;42.708;23.330;2024-03-08T13:18:44;5.03;;;0.70;;
85137;SDS011;75497;42.708;23.330;2024-03-08T13:21:13;3.78;;;0.70;;
85137;SDS011;75497;42.708;23.330;2024-03-08T13:23:40;4.88;;;1.10;;
85137;SDS011;75497;42.708;23.330;2024-03-08T13:26:08;3.78;;;0.90;;
85137;SDS011;75497;42.708;23.330;2024-03-08T13:28:37;7.88;;;1.05;;
85137;SDS011;75497;42.708;23.330;2024-03-08T13:31:06;5.00;;;1.08;;
85137;SDS011;75497;42.708;23.330;2024-03-08T13:33:32;3.30;;;1.10;;
85137;SDS011;75497;42.708;23.330;2024-03-08T13:36:01;3.58;;;1.00;;
85137;SDS011;75497;42.708;23.330;2024-03-08T13:38:28;4.53;;;0.93;;
85137;SDS011;75497;42.708;23.330;2024-03-08T13:40:54;3.53;;;0.98;;
85137;SDS011;75497;42.708;23.330;2024-03-08T13:43:19;4.40;;;0.77;;
85137;SDS011;75497;42.708;23.330;2024-03-08T13:45:45;4.45;;;0.77;;
85137;SDS011;75497;42.708;23.330;2024-03-08T13:48:11;5.40;;;0.90;;
85137;SDS011;75497;42.708;23.330;2024-03-08T13:50:38;4.00;;;0.82;;
85137;SDS011;75497;42.708;23.330;2024-03-08T13:53:04;4.00;;;0.90;;
85137;SDS011;75497;42.708;23.330;2024-03-08T13:55:30;3.85;;;0.90;;
85137;SDS011;75497;42.708;23.330;2024-03-08T13:57:56;4.70;;;1.20;;
85137;SDS011;75497;42.708;23.330;2024-03-08T14:00:25;4.78;;;1.08;;
85137;SDS011;75497;42.708;23.330;2024-03-08T14:02:53;6.22;;;1.30;;
85137;SDS011;75497;42.708;23.330;2024-03-08T14:05:19;5.13;;;1.75;;
85137;SDS011;75497;42.708;23.330;2024-03-08T14:07:45;5.13;;;1.00;;
85137;SDS011;75497;42.708;23.330;2024-03-08T14:10:14;6.60;;;1.20;;
85137;SDS011;75497;42.708;23.330;2024-03-08T14:12:40;3.10;;;0.70;;
85137;SDS011;75497;42.708;23.330;2024-03-08T14:15:08;5.13;;;1.33;;
85137;SDS011;75497;42.708;23.330;2024-03-08T14:17:34;6.97;;;1.13;;
85137;SDS011;75497;42.708;23.330;2024-03-08T14:20:00;5.65;;;1.20;;
85137;SDS011;75497;42.708;23.330;2024-03-08T14:22:26;4.35;;;1.02;;
85137;SDS011;75497;42.708;23.330;2024-03-08T14:24:51;10.02;;;2.80;;
85137;SDS011;75497;42.708;23.330;2024-03-08T14:27:17;5.57;;;1.15;;
85137;SDS011;75497;42.708;23.330;2024-03-08T14:29:43;6.28;;;1.35;;
85137;SDS011;75497;42.708;23.330;2024-03-08T14:32:09;6.10;;;1.80;;
85137;SDS011;75497;42.708;23.330;2024-03-08T14:34:35;8.65;;;2.85;;
85137;SDS011;75497;42.708;23.330;2024-03-08T14:37:01;10.50;;;3.20;;
85137;SDS011;75497;42.708;23.330;2024-03-08T14:39:30;7.00;;;1.88;;
85137;SDS011;75497;42.708;23.330;2024-03-08T14:41:58;6.90;;;2.80;;
85137;SDS011;75497;42.708;23.330;2024-03-08T14:44:25;9.88;;;2.58;;
85137;SDS011;75497;42.708;23.330;2024-03-08T14:46:57;8.48;;;2.00;;
85137;SDS011;75497;42.708;23.330;2024-03-08T14:49:23;7.45;;;2.15;;
85137;SDS011;75497;42.708;23.330;2024-03-08T14:51:51;9.27;;;2.40;;
85137;SDS011;75497;42.708;23.330;2024-03-08T14:54:17;5.65;;;1.83;;